Latest Weather Observations for Dubbo

IDN60801

Issued at 3:32 pm EDT Saturday 10 December 2016 (issued every 30 minutes, with the page automatically refreshed every 10 minutes)

About weather observations | Map of weather stations | Latest weather observations for NSW | Other Formats
Station Details ID: 065070 Name: DUBBO AIRPORT AWS Lat: -32.22 Lon: 148.58 Height: 284.0 m
Data from the previous 72 hours. | See also: Recent months at Dubbo
Date/Time
EDT
Temp
°C
App
Temp
°C
Dew
Point
°C
Rel
Hum
%
Delta-T
°C
Wind Press
QNH
hPa
Press
MSL
hPa
Rain since
9am
mm
Dir  Spd
km/h
Gust
km/h
Spd
kts
Gust
kts
10/03:30pm 30.4 26.5 0.9 15 14.5 NW 11 28 6 15 1017.8 1016.4 0.0
10/03:00pm 30.0 26.8 3.1 18 13.7 WNW 9 19 5 10 1018.4 1017.1 0.0
10/02:30pm 29.4 25.9 5.5 22 12.7 NNW 13 17 7 9 1018.8 1017.5 0.0
10/02:00pm 27.7 24.6 3.4 21 12.3 NE 9 19 5 10 1019.2 1017.9 0.0
10/01:30pm 28.7 26.8 6.7 25 11.8 SE 6 13 3 7 1019.8 1018.4 0.0
10/01:00pm 26.7 24.6 6.7 28 10.6 ESE 7 17 4 9 1020.3 1018.9 0.0
10/12:30pm 26.7 24.5 6.2 27 10.8 NE 7 17 4 9 1020.6 1019.2 0.0
10/12:00pm 25.5 22.8 5.7 28 10.3 N 9 20 5 11 1020.8 1019.4 0.0
10/11:30am 25.6 21.6 4.7 26 10.7 NNE 15 22 8 12 1021.0 1019.6 0.0
10/11:00am 24.7 21.7 6.0 30 9.7 NNE 11 19 6 10 1021.3 1020.0 0.0
10/10:30am 23.6 20.8 5.0 30 9.4 E 9 20 5 11 1021.4 1020.1 0.0
10/10:00am 21.9 19.2 7.3 39 7.6 ENE 11 20 6 11 1021.6 1020.3 0.0
10/09:30am 21.2 18.2 7.8 42 7.0 ENE 13 20 7 11 1021.8 1020.5 0.0
10/09:00am 20.5 17.5 9.4 49 6.0 ENE 15 24 8 13 1021.7 1020.4 0.0
10/08:30am 17.8 14.3 7.2 50 5.4 E 15 19 8 10 1021.7 1020.4 0.0
10/08:00am 15.6 11.3 5.2 50 5.0 ESE 17 20 9 11 1021.4 1020.1 0.0
10/07:30am 13.5 8.5 3.6 51 4.5 SE 19 20 10 11 1021.2 1019.9 0.0
10/07:00am 11.8 6.7 3.3 56 3.8 SE 19 24 10 13 1020.9 1019.5 0.0
10/06:30am 9.8 4.8 3.8 66 2.7 SE 19 22 10 12 1020.7 1019.3 0.0
10/06:00am 7.6 3.0 3.6 76 1.7 ESE 17 20 9 11 1020.5 1019.1 0.0
10/05:30am 7.1 2.8 3.0 75 1.7 E 15 17 8 9 1020.3 1018.9 0.0
10/05:00am 8.1 3.8 3.2 71 2.1 ESE 15 17 8 9 1019.8 1018.4 0.0
10/04:30am 8.5 3.8 2.9 68 2.4 ESE 17 17 9 9 1019.4 1018.1 0.0
10/04:00am 9.6 5.3 3.1 64 2.8 SE 15 17 8 9 1019.1 1017.8 0.0
10/03:30am 9.6 5.2 2.9 63 2.9 SE 15 19 8 10 1019.0 1017.7 0.0
10/03:00am 9.8 5.8 3.1 63 2.9 SE 13 15 7 8 1018.9 1017.6 0.0
10/02:30am 9.1 4.7 2.7 64 2.8 SE 15 19 8 10 1018.9 1017.6 0.0
10/02:00am 10.7 5.9 2.8 58 3.5 SE 17 19 9 10 1018.8 1017.5 0.0
10/01:30am 10.6 5.9 3.2 60 3.3 ESE 17 20 9 11 1018.7 1017.4 0.0
10/01:00am 10.4 6.1 3.0 60 3.2 ESE 15 17 8 9 1018.9 1017.6 0.0
10/12:30am 14.2 9.6 1.5 42 5.6 SSE 15 19 8 10 1019.0 1017.7 0.0
10/12:00am 13.4 8.5 2.3 47 4.9 SSE 17 19 9 10 1019.1 1017.8 0.0
 
Date/Time
EDT
Temp
°C
App
Temp
°C
Dew
Point
°C
Rel
Hum
%
Delta-T
°C
Wind Press
QNH
hPa
Press
MSL
hPa
Rain since
9am
mm
Dir  Spd
km/h
Gust
km/h
Spd
kts
Gust
kts
09/11:30pm 13.5 9.4 2.1 46 5.1 SSE 13 15 7 8 1019.2 1017.9 0.0
09/11:00pm 13.2 9.1 2.1 47 4.9 S 13 15 7 8 1018.9 1017.6 0.0
09/10:30pm 13.6 9.5 2.5 47 5.0 S 13 15 7 8 1018.7 1017.4 0.0
09/10:00pm 14.4 11.0 2.0 43 5.5 S 9 13 5 7 1018.5 1017.2 0.0
09/09:30pm 15.6 11.0 1.7 39 6.2 S 15 17 8 9 1018.2 1016.9 0.0
09/09:00pm 15.9 12.1 1.6 38 6.4 S 11 13 6 7 1018.0 1016.6 0.0
09/08:30pm 16.8 12.5 1.3 35 6.9 S 13 15 7 8 1017.6 1016.2 0.0
09/08:00pm 18.8 14.5 0.9 30 8.1 S 13 19 7 10 1017.1 1015.7 0.0
09/07:30pm 20.5 15.4 0.9 27 9.0 SSE 17 26 9 14 1016.5 1015.1 0.0
09/07:00pm 21.5 15.4 0.7 25 9.6 SSW 22 30 12 16 1016.0 1014.6 0.0
09/06:30pm 22.0 15.6 1.1 25 9.7 SSW 24 39 13 21 1015.7 1014.4 0.0
09/06:00pm 22.6 17.1 1.6 25 9.9 S 20 32 11 17 1015.1 1013.8 0.0
09/05:30pm 22.5 16.6 1.5 25 9.9 SSW 22 33 12 18 1014.8 1013.4 0.0
09/05:00pm 22.7 16.1 2.2 26 9.8 SSW 26 41 14 22 1015.0 1013.7 0.0
09/04:30pm 23.0 16.8 1.9 25 10.1 SSW 24 39 13 21 1015.1 1013.8 0.0
09/04:00pm 22.9 17.1 2.4 26 9.8 SSW 22 32 12 17 1015.1 1013.8 0.0
09/03:30pm 23.0 17.4 3.5 28 9.6 SSW 22 33 12 18 1015.2 1013.9 0.0
09/03:00pm 21.4 15.3 2.6 29 9.0 SSW 24 35 13 19 1015.6 1014.3 0.0
09/02:30pm 22.8 16.5 3.9 29 9.3 SSW 26 39 14 21 1015.7 1014.4 0.0
09/02:00pm 21.7 15.5 4.3 32 8.6 SSW 26 39 14 21 1015.6 1014.3 0.0
09/01:30pm 21.0 14.8 4.1 33 8.3 SSW 26 46 14 25 1015.7 1014.4 0.0
09/01:00pm 20.3 13.5 3.1 32 8.2 WSW 28 43 15 23 1015.8 1014.5 0.0
09/12:30pm 20.3 13.5 5.1 37 7.6 SW 30 43 16 23 1016.0 1014.6 0.0
09/12:00pm 19.3 13.5 4.6 38 7.2 SSW 24 43 13 23 1016.1 1014.7 0.0
09/11:50am 19.2 12.7 4.6 38 7.1 SSW 28 46 15 25 1016.2 1014.8 0.0
09/11:30am 18.7 11.8 6.5 45 6.2 SW 32 43 17 23 1016.0 1014.6 0.0
09/11:00am 18.8 13.0 6.3 44 6.3 SSW 26 39 14 21 1015.7 1014.4 0.0
09/10:30am 18.1 11.5 6.0 45 6.0 S 30 39 16 21 1015.5 1014.2 0.0
09/10:00am 17.5 11.4 6.7 49 5.4 S 28 39 15 21 1015.4 1014.1 0.0
09/09:30am 16.7 11.7 7.9 56 4.5 SSW 24 35 13 19 1015.1 1013.8 0.0
09/09:00am 16.4 11.1 8.6 60 4.0 S 26 37 14 20 1014.8 1013.4 2.6
09/08:30am 15.1 9.4 8.3 64 3.5 SSW 28 37 15 20 1014.3 1012.9 2.6
09/08:00am 14.2 8.3 7.5 64 3.3 SSW 28 39 15 21 1014.0 1012.6 2.6
09/07:30am 13.8 9.1 7.8 67 3.0 SSW 22 32 12 17 1013.6 1012.2 2.6
09/07:00am 13.0 9.8 8.3 73 2.4 SSW 15 20 8 11 1013.0 1011.6 2.6
09/06:30am 12.0 8.8 8.3 78 1.9 SSW 15 20 8 11 1012.6 1011.2 2.6
09/06:00am 10.8 8.5 8.9 88 1.0 SW 11 15 6 8 1012.0 1010.7 2.6
09/05:30am 11.5 8.9 9.4 87 1.1 SSW 13 17 7 9 1011.5 1010.1 2.6
09/05:00am 11.9 9.6 10.6 92 0.7 SW 13 17 7 9 1011.0 1009.6 2.6
09/04:30am 12.4 10.3 11.3 93 0.6 WSW 13 15 7 8 1010.5 1009.1 2.6
09/04:00am 12.5 10.5 11.6 94 0.5 WSW 13 17 7 9 1010.3 1008.9 2.6
09/03:30am 12.7 10.7 11.6 93 0.6 W 13 15 7 8 1010.1 1008.7 2.6
09/03:00am 12.9 11.4 11.8 93 0.6 W 11 15 6 8 1009.9 1008.5 2.6
09/02:30am 13.4 11.6 12.1 92 0.7 W 13 15 7 8 1009.7 1008.3 2.6
09/02:00am 13.7 11.6 12.4 92 0.7 W 15 17 8 9 1009.6 1008.2 2.6
09/01:30am 14.1 12.0 12.5 90 0.9 WSW 15 20 8 11 1009.5 1008.1 2.6
09/01:00am 14.7 12.1 12.0 84 1.5 WSW 17 20 9 11 1009.6 1008.2 2.6
09/12:30am 15.3 11.9 10.7 74 2.5 SW 19 24 10 13 1009.0 1007.6 2.6
09/12:00am 16.4 14.7 11.3 72 2.8 SSW 11 15 6 8 1008.3 1006.9 2.6
 
Date/Time
EDT
Temp
°C
App
Temp
°C
Dew
Point
°C
Rel
Hum
%
Delta-T
°C
Wind Press
QNH
hPa
Press
MSL
hPa
Rain since
9am
mm
Dir  Spd
km/h
Gust
km/h
Spd
kts
Gust
kts
08/11:30pm 16.4 14.8 11.6 73 2.6 S 11 15 6 8 1007.7 1006.3 2.6
08/11:00pm 16.3 13.7 12.1 76 2.3 S 17 24 9 13 1007.5 1006.1 2.6
08/10:30pm 16.2 13.3 12.9 81 1.9 S 20 35 11 19 1007.1 1005.7 2.6
08/10:06pm 16.1 11.9 13.4 84 1.5 S 28 46 15 25 1007.0 1005.6 2.6
08/10:00pm 16.3 11.3 13.4 83 1.7 SSW 32 46 17 25 1006.8 1005.4 2.6
08/09:49pm 16.7 11.2 14.7 88 1.2 SSW 37 56 20 30 1006.4 1005.0 2.6
08/09:42pm 16.9 10.4 15.1 89 1.1 SSW 43 59 23 32 1006.3 1004.9 2.6
08/09:33pm 19.0 16.2 17.3 90 1.0 SSW 28 48 15 26 1005.6 1004.1 2.6
08/09:30pm 19.3 17.8 17.6 90 1.1 SSW 22 37 12 20 1005.5 1004.0 2.6
08/09:00pm 19.1 17.3 17.8 92 0.8 SSW 24 32 13 17 1004.8 1003.4 2.6
08/08:49pm 19.2 17.0 17.9 92 0.8 SSW 26 41 14 22 1004.4 1003.0 2.6
08/08:30pm 19.4 15.5 17.9 91 0.9 SW 35 46 19 25 1005.8 1004.4 1.6
08/08:28pm 19.6 16.0 17.7 89 1.2 SW 33 46 18 25 1006.0 1004.6 1.0
08/08:00pm 22.7 16.5 15.8 65 4.2 SW 43 56 23 30 1005.8 1004.4 0.0
08/07:30pm 25.0 18.2 14.8 53 6.2 SW 44 67 24 36 1004.0 1002.6 0.0
08/07:07pm 26.7 21.7 13.4 43 7.9 SW 32 50 17 27 1002.0 1000.5 0.0
08/07:00pm 26.9 20.5 13.3 43 8.1 SSW 39 54 21 29 1001.3 999.8 0.0
08/06:48pm 28.2 22.2 13.3 40 8.9 SSW 37 56 20 30 1000.9 999.5 0.0
08/06:39pm 28.6 21.2 12.9 38 9.4 SSW 44 61 24 33 1000.9 999.5 0.0
08/06:30pm 30.5 22.8 11.5 31 11.2 SW 43 61 23 33 1000.6 999.2 0.0
08/06:27pm 30.7 22.9 11.1 30 11.4 SW 43 61 23 33 1000.3 998.9 0.0
08/06:23pm 31.2 23.2 10.5 28 12.0 WSW 43 61 23 33 1000.4 999.0 0.0
08/06:18pm 33.5 27.0 8.9 22 14.1 WSW 33 54 18 29 999.8 998.4 0.0
08/06:00pm 34.2 27.4 9.4 22 14.4 WSW 35 46 19 25 999.7 998.3 0.0
08/05:34pm 35.7 29.7 10.0 21 15.1 WNW 32 54 17 29 999.5 998.1 0.0
08/05:30pm 35.8 30.0 10.8 22 14.8 WNW 32 46 17 25 999.5 998.1 0.0
08/05:00pm 36.4 31.3 10.6 21 15.4 WNW 28 41 15 22 999.6 998.2 0.0
08/04:35pm 36.3 30.2 9.8 20 15.5 WNW 32 50 17 27 999.7 998.3 0.0
08/04:30pm 36.4 30.3 9.8 20 15.6 WNW 32 46 17 25 999.7 998.3 0.0
08/04:07pm 36.0 30.0 10.9 22 14.9 WNW 33 52 18 28 999.9 998.5 0.0
08/04:00pm 36.5 30.4 10.6 21 15.5 WNW 33 46 18 25 1000.0 998.6 0.0
08/03:30pm 35.8 29.6 11.4 23 14.6 WNW 35 50 19 27 1000.6 999.2 0.0
08/03:15pm 36.2 30.7 11.8 23 14.7 WNW 32 50 17 27 1001.1 999.7 0.0
08/03:00pm 33.9 27.6 11.1 25 13.6 WNW 35 46 19 25 1001.5 1000.0 0.0
08/02:43pm 34.4 28.2 11.5 25 13.7 NW 35 54 19 29 1001.9 1000.4 0.0
08/02:36pm 35.1 28.9 12.7 26 13.6 WNW 37 50 20 27 1002.0 1000.5 0.0
08/02:30pm 36.2 29.7 11.8 23 14.7 W 37 56 20 30 1002.1 1000.6 0.0
08/02:22pm 36.4 31.3 13.2 25 14.3 WNW 32 56 17 30 1002.3 1000.8 0.0
08/02:00pm 35.4 30.6 14.1 28 13.3 NW 32 46 17 25 1002.9 1001.5 0.0
08/01:32pm 33.9 28.7 14.4 31 12.1 NW 35 54 19 29 1003.3 1001.9 0.0
08/01:30pm 34.0 28.8 14.5 31 12.1 NW 35 52 19 28 1003.4 1002.0 0.0
08/01:07pm 34.0 28.8 14.5 31 12.1 WNW 35 54 19 29 1004.0 1002.6 0.0
08/01:00pm 33.8 29.1 14.8 32 11.9 WNW 33 43 18 23 1004.2 1002.8 0.0
08/12:30pm 33.8 29.1 14.8 32 11.9 NW 33 52 18 28 1005.1 1003.6 0.0
08/12:03pm 33.0 27.5 14.6 33 11.4 NW 37 57 20 31 1005.6 1004.1 0.0
08/12:00pm 32.6 26.5 14.2 32 11.4 NW 39 52 21 28 1005.8 1004.4 0.0
08/11:50am 32.9 27.3 14.5 33 11.4 WNW 37 50 20 27 1005.8 1004.4 0.0
08/11:39am 32.6 26.4 13.8 32 11.5 NW 39 56 21 30 1006.0 1004.6 0.0
08/11:30am 31.5 25.1 13.3 33 11.0 NW 39 57 21 31 1006.1 1004.7 0.0
08/11:00am 31.5 25.3 13.7 33 10.9 NW 39 65 21 35 1006.6 1005.2 0.0
08/10:57am 31.5 25.1 13.3 33 11.0 NNW 39 65 21 35 1006.5 1005.1 0.0
08/10:30am 31.1 25.9 13.4 34 10.7 NNW 33 46 18 25 1006.9 1005.5 0.0
08/10:00am 30.2 24.2 12.1 32 10.7 NNW 35 48 19 26 1007.3 1005.9 0.0
08/09:30am 29.2 23.1 9.9 30 11.0 NNW 32 44 17 24 1007.8 1006.4 0.0
08/09:00am 28.3 24.3 11.8 36 9.7 N 24 32 13 17 1008.3 1006.9 0.0
08/08:30am 25.9 25.0 15.9 54 6.2 NNE 15 30 8 16 1008.6 1007.1 0.0
08/08:00am 23.0 22.6 16.1 65 4.2 NNE 13 17 7 9 1009.1 1007.7 0.0
08/07:30am 21.0 19.8 16.0 73 3.0 NE 17 24 9 13 1009.2 1007.8 0.0
08/07:00am 19.2 17.3 15.3 78 2.3 ENE 19 24 10 13 1009.3 1007.9 0.0
08/06:30am 18.8 17.4 15.5 81 2.0 ENE 17 20 9 11 1009.3 1007.9 0.0
08/06:00am 18.3 16.8 15.2 82 1.8 ENE 17 22 9 12 1009.2 1007.8 0.0
08/05:30am 18.1 16.5 15.0 82 1.8 ENE 17 20 9 11 1009.2 1007.8 0.0
08/05:00am 18.2 16.6 14.9 81 1.9 ENE 17 22 9 12 1009.2 1007.8 0.0
08/04:30am 17.8 15.8 13.9 78 2.3 ENE 17 20 9 11 1009.2 1007.8 0.0
08/04:00am 17.1 15.1 12.6 75 2.5 E 15 17 8 9 1009.5 1008.1 0.0
08/03:30am 17.6 15.6 12.7 73 2.8 E 15 19 8 10 1009.8 1008.4 0.0
08/03:00am 17.5 15.7 12.0 70 3.1 ESE 13 17 7 9 1010.0 1008.6 0.0
08/02:30am 18.2 16.0 12.2 68 3.4 ESE 15 17 8 9 1010.2 1008.8 0.0
08/02:00am 19.1 17.1 12.6 66 3.7 E 15 17 8 9 1010.5 1009.1 0.0
08/01:30am 17.8 15.7 11.1 65 3.7 E 13 17 7 9 1010.8 1009.4 0.0
08/01:00am 18.9 16.7 10.7 59 4.5 E 13 17 7 9 1011.0 1009.6 0.0
08/12:30am 18.2 14.9 9.5 57 4.6 ESE 17 17 9 9 1011.6 1010.2 0.0
08/12:00am 17.6 14.0 9.8 60 4.2 ENE 19 24 10 13 1012.0 1010.7 0.0
 
Date/Time
EDT
Temp
°C
App
Temp
°C
Dew
Point
°C
Rel
Hum
%
Delta-T
°C
Wind Press
QNH
hPa
Press
MSL
hPa
Rain since
9am
mm
Dir  Spd
km/h
Gust
km/h
Spd
kts
Gust
kts
07/11:30pm 18.7 15.4 9.5 55 4.9 SE 17 19 9 10 1011.9 1010.6 0.0
07/11:00pm 18.0 15.3 8.8 55 4.8 ESE 13 17 7 9 1012.0 1010.7 0.0
07/10:30pm 19.0 17.4 8.6 51 5.5 SE 7 9 4 5 1012.0 1010.7 0.0
07/10:00pm 20.1 18.2 7.5 44 6.6 SE 7 9 4 5 1012.0 1010.7 0.0
07/09:30pm 22.8 20.0 7.0 36 8.3 SSE 11 13 6 7 1012.0 1010.7 0.0
07/09:00pm 22.7 20.5 7.7 38 7.9 S 9 11 5 6 1012.1 1010.8 0.0
07/08:44pm 23.6 21.8 8.1 37 8.3 S 7 9 4 5 1012.1 1010.8 0.0
07/08:30pm 24.2 22.3 6.9 33 9.1 S 6 9 3 5 1012.0 1010.7 0.0
07/08:25pm 23.5 21.4 6.7 34 8.8 S 7 9 4 5 1012.0 1010.7 0.0
07/08:08pm 24.4 22.4 7.1 33 9.2 S 7 9 4 5 1011.9 1010.6 0.0
07/08:00pm 25.0 23.0 7.2 32 9.5 S 7 9 4 5 1012.0 1010.7 0.0
07/07:44pm 26.8 24.4 6.8 28 10.7 SSW 9 13 5 7 1012.0 1010.7 0.0
07/07:30pm 28.3 25.9 7.0 26 11.5 SW 9 11 5 6 1012.1 1010.8 0.0
07/07:00pm 29.8 26.8 5.8 22 12.8 SW 11 20 6 11 1012.0 1010.7 0.0
07/06:30pm 30.4 27.9 4.9 20 13.4 S 7 17 4 9 1011.9 1010.6 0.0
07/06:00pm 31.2 27.7 5.6 20 13.7 SW 13 19 7 10 1011.7 1010.3 0.0
07/05:30pm 31.0 28.3 5.4 20 13.7 WSW 9 17 5 9 1011.7 1010.3 0.0
07/05:00pm 31.3 27.6 6.4 21 13.5 W 15 24 8 13 1012.1 1010.8 0.0
07/04:30pm 30.5 27.7 7.0 23 12.8 SSW 11 22 6 12 1012.4 1011.0 0.0
07/04:00pm 31.0 28.6 8.7 25 12.6 SSW 11 30 6 16 1012.6 1011.2 0.0

Other Formats:

Comma delimited format used in spreadsheet applications
http://www.bom.gov.au/fwo/IDN60801/IDN60801.95719.axf

JavaScript Object Notation format (JSON) in row-major order
http://www.bom.gov.au/fwo/IDN60801/IDN60801.95719.json